createdAt,value
2023-05-24T00:02:14.177Z,2.00
2023-05-24T00:04:42.279Z,1.92
2023-05-24T00:07:09.365Z,1.95
2023-05-24T00:09:36.157Z,1.83
2023-05-24T00:12:03.680Z,1.88
2023-05-24T00:14:30.762Z,1.90
2023-05-24T00:16:57.596Z,2.03
2023-05-24T00:19:24.426Z,2.17
2023-05-24T00:21:51.780Z,2.20
2023-05-24T00:24:18.578Z,1.90
2023-05-24T00:26:45.653Z,2.10
2023-05-24T00:29:12.534Z,2.15
2023-05-24T00:31:39.566Z,1.90
2023-05-24T00:34:06.909Z,2.00
2023-05-24T00:36:33.997Z,2.00
2023-05-24T00:39:00.905Z,1.73
2023-05-24T00:41:27.756Z,2.08
2023-05-24T00:43:54.804Z,2.00
2023-05-24T00:46:27.286Z,2.15
2023-05-24T00:48:54.764Z,2.08
2023-05-24T00:51:22.312Z,1.90
2023-05-24T00:53:49.635Z,1.90
2023-05-24T00:56:17.611Z,2.33
2023-05-24T00:58:45.008Z,2.20
2023-05-24T01:01:12.613Z,2.40
2023-05-24T01:03:40.153Z,3.00
2023-05-24T01:06:08.810Z,2.90
2023-05-24T01:08:42.679Z,2.78
2023-05-24T01:11:26.495Z,2.60
2023-05-24T01:14:02.579Z,2.72
2023-05-24T01:16:51.739Z,2.47
2023-05-24T01:19:33.483Z,2.30
2023-05-24T01:22:26.873Z,2.25
2023-05-24T01:24:58.720Z,2.28
2023-05-24T01:27:26.692Z,2.40
2023-05-24T01:29:54.516Z,2.50
2023-05-24T01:32:21.607Z,2.42
2023-05-24T01:34:48.485Z,2.05
2023-05-24T01:37:16.365Z,2.30
2023-05-24T01:39:43.141Z,2.20
2023-05-24T01:42:27.368Z,2.50
2023-05-24T01:45:03.337Z,2.20
2023-05-24T01:47:48.705Z,2.15
2023-05-24T01:50:38.730Z,2.38
2023-05-24T01:53:12.859Z,2.50
2023-05-24T01:55:41.562Z,2.30
2023-05-24T01:58:10.001Z,2.50
2023-05-24T02:00:39.417Z,2.45
2023-05-24T02:03:06.946Z,2.60
2023-05-24T02:05:34.043Z,2.20
2023-05-24T02:08:05.797Z,2.40
2023-05-24T02:10:32.687Z,2.00
2023-05-24T02:12:59.670Z,2.40
2023-05-24T02:15:30.520Z,2.50
2023-05-24T02:17:58.182Z,2.40
2023-05-24T02:20:25.331Z,2.53
2023-05-24T02:22:52.263Z,2.45
2023-05-24T02:25:19.095Z,2.80
2023-05-24T02:27:47.188Z,2.53
2023-05-24T02:30:14.206Z,2.63
2023-05-24T02:32:41.451Z,2.60
2023-05-24T02:35:08.315Z,2.58
2023-05-24T02:37:35.074Z,2.63
2023-05-24T02:40:01.912Z,2.63
2023-05-24T02:42:28.732Z,2.90
2023-05-24T02:44:55.514Z,2.70
2023-05-24T02:47:22.804Z,2.55
2023-05-24T02:49:49.683Z,2.70
2023-05-24T02:52:21.566Z,2.42
2023-05-24T02:54:51.520Z,2.60
2023-05-24T02:57:20.218Z,2.50
2023-05-24T02:59:46.988Z,2.58
2023-05-24T03:02:14.835Z,2.80
2023-05-24T03:04:41.766Z,3.00
2023-05-24T03:07:11.498Z,2.97
2023-05-24T03:09:38.407Z,2.70
2023-05-24T03:12:06.451Z,3.00
2023-05-24T03:14:34.355Z,3.33
2023-05-24T03:17:01.017Z,3.05
2023-05-24T03:19:28.291Z,3.08
2023-05-24T03:21:55.099Z,3.10
2023-05-24T03:24:21.864Z,2.83
2023-05-24T03:26:49.342Z,2.88
2023-05-24T03:29:17.377Z,3.00
2023-05-24T03:31:45.237Z,2.50
2023-05-24T03:34:12.052Z,3.20
2023-05-24T03:36:39.917Z,2.90
2023-05-24T03:39:07.818Z,3.65
2023-05-24T03:41:48.890Z,5.00
2023-05-24T03:44:15.914Z,3.70
2023-05-24T03:46:42.802Z,3.30
2023-05-24T03:49:10.048Z,3.20
2023-05-24T03:51:37.831Z,3.30
2023-05-24T03:54:04.689Z,3.80
2023-05-24T03:56:31.556Z,2.83
2023-05-24T03:59:00.773Z,2.75
2023-05-24T04:01:33.977Z,3.35
2023-05-24T04:04:02.121Z,2.97
2023-05-24T04:06:30.005Z,2.75
2023-05-24T04:09:00.123Z,2.63
2023-05-24T04:11:28.590Z,2.92
2023-05-24T04:13:56.286Z,2.80
2023-05-24T04:16:24.785Z,2.60
2023-05-24T04:18:52.186Z,2.70
2023-05-24T04:21:19.643Z,2.60
2023-05-24T04:23:46.902Z,2.55
2023-05-24T04:26:15.659Z,2.50
2023-05-24T04:28:42.420Z,2.40
2023-05-24T04:31:10.062Z,2.42
2023-05-24T04:33:39.230Z,2.50
2023-05-24T04:36:06.512Z,2.50
2023-05-24T04:38:34.611Z,2.38
2023-05-24T04:41:02.251Z,2.05
2023-05-24T04:43:29.013Z,2.50
2023-05-24T04:45:56.076Z,2.25
2023-05-24T04:48:24.783Z,2.30
2023-05-24T04:50:52.704Z,2.40
2023-05-24T04:53:20.647Z,2.20
2023-05-24T04:55:48.716Z,2.42
2023-05-24T04:58:16.219Z,2.45
2023-05-24T05:00:43.555Z,2.90
2023-05-24T05:03:11.618Z,2.55
2023-05-24T05:05:38.754Z,2.70
2023-05-24T05:08:06.374Z,2.60
2023-05-24T05:10:33.204Z,3.13
2023-05-24T05:13:00.171Z,2.95
2023-05-24T05:15:27.024Z,3.00
2023-05-24T05:17:53.880Z,2.60
2023-05-24T05:20:20.890Z,2.25
2023-05-24T05:22:48.963Z,2.20
2023-05-24T05:25:16.091Z,3.90
2023-05-24T05:27:44.318Z,3.25
2023-05-24T05:30:11.627Z,2.60
2023-05-24T05:32:38.717Z,2.67
2023-05-24T05:35:06.113Z,3.03
2023-05-24T05:37:33.076Z,2.60
2023-05-24T05:39:59.819Z,1.80
2023-05-24T05:42:26.824Z,2.97
2023-05-24T05:44:53.631Z,2.80
2023-05-24T05:47:20.445Z,2.00
2023-05-24T05:49:47.406Z,2.25
2023-05-24T05:52:14.368Z,2.35
2023-05-24T05:54:41.277Z,2.60
2023-05-24T05:57:10.594Z,1.63
2023-05-24T05:59:38.394Z,1.98
2023-05-24T06:02:07.138Z,1.95
2023-05-24T06:04:34.683Z,1.92
2023-05-24T06:07:02.481Z,1.80
2023-05-24T06:09:29.634Z,1.88
2023-05-24T06:11:56.361Z,1.55
2023-05-24T06:14:25.170Z,1.50
2023-05-24T06:16:54.631Z,1.70
2023-05-24T06:19:21.794Z,1.70
2023-05-24T06:21:49.541Z,2.47
2023-05-24T06:24:22.957Z,2.22
2023-05-24T06:26:52.724Z,1.50
2023-05-24T06:29:20.976Z,1.45
2023-05-24T06:31:49.096Z,1.65
2023-05-24T06:34:17.801Z,1.45
2023-05-24T06:36:47.373Z,2.17
2023-05-24T06:39:16.096Z,1.88
2023-05-24T06:41:43.512Z,1.48
2023-05-24T06:44:10.535Z,1.95
2023-05-24T06:46:37.413Z,1.40
2023-05-24T06:49:04.480Z,1.55
2023-05-24T06:51:33.944Z,1.30
2023-05-24T06:54:01.050Z,1.48
2023-05-24T06:56:28.901Z,2.20
2023-05-24T06:58:56.639Z,1.35
2023-05-24T07:01:23.754Z,1.48
2023-05-24T07:03:50.660Z,1.40
2023-05-24T07:06:18.423Z,1.40
2023-05-24T07:08:45.269Z,2.65
2023-05-24T07:11:12.284Z,1.20
2023-05-24T07:13:39.316Z,1.27
2023-05-24T07:16:06.962Z,1.20
2023-05-24T07:18:33.868Z,1.20
2023-05-24T07:21:01.347Z,1.10
2023-05-24T07:23:28.200Z,1.10
2023-05-24T07:25:55.015Z,1.30
2023-05-24T07:28:22.048Z,1.50
2023-05-24T07:30:48.954Z,1.70
2023-05-24T07:33:16.563Z,1.60
2023-05-24T07:35:45.680Z,1.10
2023-05-24T07:38:12.588Z,1.00
2023-05-24T07:40:39.731Z,1.10
2023-05-24T07:43:06.775Z,1.00
2023-05-24T07:45:33.874Z,1.00
2023-05-24T07:48:01.366Z,1.40
2023-05-24T07:50:29.257Z,1.10
2023-05-24T07:52:59.289Z,1.00
2023-05-24T07:55:27.194Z,0.95
2023-05-24T07:57:54.283Z,1.25
2023-05-24T08:00:21.782Z,0.80
2023-05-24T08:02:48.779Z,0.77
2023-05-24T08:05:16.881Z,0.80
2023-05-24T08:07:43.788Z,1.10
2023-05-24T08:10:13.571Z,1.08
2023-05-24T08:12:40.754Z,1.00
2023-05-24T08:15:08.467Z,1.00
2023-05-24T08:17:35.531Z,0.90
2023-05-24T08:20:06.615Z,1.00
2023-05-24T08:22:33.852Z,1.15
2023-05-24T08:25:00.818Z,0.90
2023-05-24T08:27:30.518Z,0.90
2023-05-24T08:29:57.355Z,0.80
2023-05-24T08:32:27.605Z,1.00
2023-05-24T08:35:03.598Z,0.90
2023-05-24T08:37:37.881Z,1.20
2023-05-24T08:40:05.211Z,0.80
2023-05-24T08:42:32.208Z,1.10
2023-05-24T08:45:04.917Z,0.80
2023-05-24T08:47:32.942Z,0.80
2023-05-24T08:50:01.102Z,0.85
2023-05-24T08:52:29.715Z,1.08
2023-05-24T08:54:58.136Z,1.00
2023-05-24T08:57:27.013Z,0.90
2023-05-24T08:59:57.178Z,0.80
2023-05-24T09:02:24.408Z,1.02
2023-05-24T09:04:53.180Z,0.90
2023-05-24T09:07:24.732Z,0.93
2023-05-24T09:10:01.143Z,0.90
2023-05-24T09:12:38.203Z,0.90
2023-05-24T09:15:07.447Z,0.98
2023-05-24T09:17:38.901Z,0.90
2023-05-24T09:20:11.368Z,1.00
2023-05-24T09:22:42.491Z,1.08
2023-05-24T09:25:12.740Z,1.45
2023-05-24T09:27:39.872Z,1.02
2023-05-24T09:30:11.052Z,1.20
2023-05-24T09:32:38.562Z,1.10
2023-05-24T09:35:09.590Z,1.10
2023-05-24T09:37:38.876Z,1.00
2023-05-24T09:40:10.985Z,1.05
2023-05-24T09:42:38.461Z,1.13
2023-05-24T09:45:10.703Z,1.10
2023-05-24T09:47:42.455Z,1.33
2023-05-24T09:50:19.591Z,1.30
2023-05-24T09:52:46.616Z,1.40
2023-05-24T09:55:15.194Z,1.42
2023-05-24T09:57:44.119Z,1.70
2023-05-24T10:00:16.476Z,1.33
2023-05-24T10:02:53.088Z,1.25
2023-05-24T10:05:22.104Z,1.30
2023-05-24T10:07:49.400Z,1.10
2023-05-24T10:10:16.776Z,1.20
2023-05-24T10:12:46.739Z,1.00
2023-05-24T10:15:13.934Z,0.98
2023-05-24T10:17:41.227Z,1.10
2023-05-24T10:20:09.105Z,0.90
2023-05-24T10:22:40.600Z,1.23
2023-05-24T10:25:10.891Z,0.98
2023-05-24T10:27:38.742Z,1.38
2023-05-24T10:30:28.144Z,1.40
2023-05-24T10:32:57.479Z,2.22
2023-05-24T10:35:24.997Z,1.20
2023-05-24T10:37:52.421Z,1.33
2023-05-24T10:40:21.142Z,1.15
2023-05-24T10:42:48.764Z,2.37
2023-05-24T10:45:24.657Z,2.17
2023-05-24T10:47:51.855Z,3.83
2023-05-24T10:50:20.673Z,1.35
2023-05-24T10:52:50.737Z,1.20
2023-05-24T10:55:19.877Z,1.50
2023-05-24T10:57:46.668Z,3.28
2023-05-24T11:00:34.768Z,1.60
2023-05-24T11:05:49.933Z,1.08
2023-05-24T11:08:22.718Z,1.50
2023-05-24T11:10:49.557Z,3.50
2023-05-24T11:13:19.984Z,2.53
2023-05-24T11:15:51.444Z,1.83
2023-05-24T11:18:23.523Z,1.23
2023-05-24T11:20:50.723Z,1.10
2023-05-24T11:23:18.113Z,1.10
2023-05-24T11:25:48.257Z,1.30
2023-05-24T11:28:15.206Z,1.10
2023-05-24T11:30:47.708Z,1.67
2023-05-24T11:33:18.872Z,1.20
2023-05-24T11:35:47.074Z,1.00
2023-05-24T11:38:15.693Z,1.40
2023-05-24T11:40:44.936Z,1.45
2023-05-24T11:43:16.684Z,1.10
2023-05-24T11:45:46.101Z,1.00
2023-05-24T11:48:13.254Z,1.20
2023-05-24T11:50:49.543Z,1.13
2023-05-24T11:53:20.432Z,1.00
2023-05-24T11:55:48.692Z,1.30
2023-05-24T11:58:29.662Z,1.23
2023-05-24T12:00:56.385Z,1.10
2023-05-24T12:03:23.387Z,0.98
2023-05-24T12:05:50.365Z,1.10
2023-05-24T12:08:17.169Z,1.58
2023-05-24T12:10:44.903Z,2.58
2023-05-24T12:13:22.593Z,0.98
2023-05-24T12:15:55.580Z,1.33
2023-05-24T12:18:24.823Z,1.00
2023-05-24T12:20:52.587Z,1.30
2023-05-24T12:23:21.644Z,1.00
2023-05-24T12:25:48.446Z,0.95
2023-05-24T12:28:15.610Z,0.97
2023-05-24T12:30:44.952Z,1.20
2023-05-24T12:33:11.982Z,1.10
2023-05-24T12:35:45.183Z,1.10
2023-05-24T12:38:12.344Z,0.90
2023-05-24T12:40:44.003Z,1.10
2023-05-24T12:43:14.851Z,0.90
2023-05-24T12:45:41.795Z,1.00
2023-05-24T12:48:08.863Z,0.98
2023-05-24T12:50:35.801Z,0.90
2023-05-24T12:53:02.662Z,0.90
2023-05-24T12:55:29.883Z,1.00
2023-05-24T12:57:58.211Z,1.05
2023-05-24T13:00:29.964Z,0.88
2023-05-24T13:02:58.996Z,0.82
2023-05-24T13:05:27.698Z,0.70
2023-05-24T13:07:56.461Z,0.90
2023-05-24T13:12:50.891Z,0.80
2023-05-24T13:15:19.556Z,0.90
2023-05-24T13:17:47.035Z,0.80
2023-05-24T13:20:13.978Z,0.82
2023-05-24T13:22:40.794Z,1.00
2023-05-24T13:25:09.683Z,0.70
2023-05-24T13:27:36.530Z,0.90
2023-05-24T13:30:04.532Z,0.80
2023-05-24T13:32:31.913Z,1.00
2023-05-24T13:34:59.090Z,1.00
2023-05-24T13:37:25.949Z,0.80
2023-05-24T13:39:52.905Z,0.90
2023-05-24T13:42:19.899Z,1.00
2023-05-24T13:44:46.898Z,0.98
2023-05-24T13:47:23.741Z,0.90
2023-05-24T13:49:54.409Z,0.80
2023-05-24T13:52:21.294Z,0.90
2023-05-24T13:54:48.614Z,1.10
2023-05-24T13:57:16.366Z,0.80
2023-05-24T13:59:43.551Z,1.00
2023-05-24T14:02:10.966Z,1.00
2023-05-24T14:04:37.801Z,1.05
2023-05-24T14:07:05.548Z,1.10
2023-05-24T14:09:32.430Z,1.00
2023-05-24T14:11:59.316Z,1.20
2023-05-24T14:16:55.987Z,1.00
2023-05-24T14:19:23.376Z,0.98
2023-05-24T14:21:50.202Z,1.10
2023-05-24T14:24:17.097Z,1.40
2023-05-24T14:26:43.873Z,1.00
2023-05-24T14:29:10.668Z,1.10
2023-05-24T14:31:42.279Z,1.00
2023-05-24T14:34:11.241Z,1.13
2023-05-24T14:36:38.827Z,1.10
2023-05-24T14:39:06.946Z,1.13
2023-05-24T14:41:34.876Z,1.00
2023-05-24T14:44:01.734Z,1.00
2023-05-24T14:46:28.827Z,1.30
2023-05-24T14:48:55.746Z,1.10
2023-05-24T14:51:22.720Z,1.00
2023-05-24T14:53:49.673Z,1.10
2023-05-24T14:56:16.930Z,1.00
2023-05-24T14:58:43.779Z,1.20
2023-05-24T15:01:10.666Z,1.00
2023-05-24T15:03:37.680Z,1.30
2023-05-24T15:06:04.998Z,1.50
2023-05-24T15:08:31.891Z,1.10
2023-05-24T15:10:59.095Z,1.50
2023-05-24T15:13:26.181Z,1.00
2023-05-24T15:15:54.826Z,1.05
2023-05-24T15:18:21.597Z,1.20
2023-05-24T15:20:49.012Z,1.05
2023-05-24T15:23:16.778Z,1.30
2023-05-24T15:25:44.068Z,1.10
2023-05-24T15:28:12.935Z,1.63
2023-05-24T15:30:40.280Z,1.10
2023-05-24T15:33:07.580Z,1.23
2023-05-24T15:35:34.429Z,1.00
2023-05-24T15:38:01.175Z,1.10
2023-05-24T15:40:28.037Z,1.00
2023-05-24T15:42:55.028Z,1.10
2023-05-24T15:45:21.969Z,1.00
2023-05-24T15:47:49.099Z,1.00
2023-05-24T15:50:16.554Z,1.05
2023-05-24T15:52:45.637Z,1.13
2023-05-24T15:55:13.493Z,1.05
2023-05-24T15:57:41.518Z,0.88
2023-05-24T16:00:09.021Z,1.00
2023-05-24T16:02:44.361Z,1.00
2023-05-24T16:05:13.030Z,1.30
2023-05-24T16:07:41.085Z,0.90
2023-05-24T16:10:08.305Z,1.30
2023-05-24T16:12:35.144Z,1.35
2023-05-24T16:15:01.998Z,1.15
2023-05-24T16:17:29.234Z,1.25
2023-05-24T16:19:56.174Z,1.00
2023-05-24T16:22:23.969Z,1.02
2023-05-24T16:24:51.204Z,1.10
2023-05-24T16:27:18.037Z,1.20
2023-05-24T16:29:46.902Z,1.08
2023-05-24T16:32:14.335Z,1.30
2023-05-24T16:34:55.578Z,1.45
2023-05-24T16:37:23.868Z,1.13
2023-05-24T16:39:50.876Z,1.00
2023-05-24T16:42:17.668Z,1.30
2023-05-24T16:44:44.530Z,1.27
2023-05-24T16:47:11.376Z,1.40
2023-05-24T16:49:38.260Z,1.40
2023-05-24T16:52:05.229Z,1.30
2023-05-24T16:54:32.010Z,1.00
2023-05-24T16:56:59.472Z,1.60
2023-05-24T16:59:26.263Z,1.40
2023-05-24T17:01:53.424Z,2.00
2023-05-24T17:04:20.544Z,1.40
2023-05-24T17:06:47.557Z,1.67
2023-05-24T17:09:14.622Z,1.88
2023-05-24T17:11:41.986Z,1.70
2023-05-24T17:14:09.039Z,1.90
2023-05-24T17:16:36.165Z,1.90
2023-05-24T17:19:03.583Z,2.00
2023-05-24T17:21:31.534Z,1.80
2023-05-24T17:23:59.919Z,1.88
2023-05-24T17:26:27.566Z,1.90
2023-05-24T17:28:54.595Z,1.73
2023-05-24T17:31:21.879Z,1.67
2023-05-24T17:33:48.980Z,1.90
2023-05-24T17:36:15.935Z,1.98
2023-05-24T17:38:43.933Z,1.70
2023-05-24T17:41:11.121Z,2.38
2023-05-24T17:43:40.152Z,2.50
2023-05-24T17:46:07.719Z,2.35
2023-05-24T17:48:38.760Z,2.10
2023-05-24T17:51:08.084Z,2.55
2023-05-24T17:53:38.098Z,2.63
2023-05-24T17:56:09.445Z,2.70
2023-05-24T17:58:37.396Z,2.50
2023-05-24T18:01:10.216Z,2.78
2023-05-24T18:03:38.451Z,2.80
2023-05-24T18:06:07.016Z,2.85
2023-05-24T18:08:36.240Z,2.70
2023-05-24T18:11:08.047Z,2.60
2023-05-24T18:13:37.202Z,2.63
2023-05-24T18:16:04.243Z,2.93
2023-05-24T18:18:31.212Z,3.10
2023-05-24T18:20:58.134Z,4.00
2023-05-24T18:23:25.278Z,3.00
2023-05-24T18:26:01.436Z,2.85
2023-05-24T18:28:29.298Z,3.30
2023-05-24T18:30:59.346Z,4.00
2023-05-24T18:33:26.238Z,3.90
2023-05-24T18:35:53.167Z,4.07
2023-05-24T18:38:20.226Z,4.40
2023-05-24T18:40:47.742Z,4.32
2023-05-24T18:43:14.977Z,4.22
2023-05-24T18:45:42.333Z,4.65
2023-05-24T18:48:09.910Z,4.22
2023-05-24T18:50:36.928Z,4.25
2023-05-24T18:53:04.121Z,4.35
2023-05-24T18:55:30.974Z,4.40
2023-05-24T18:57:59.969Z,5.20
2023-05-24T19:00:31.188Z,5.30
2023-05-24T19:02:58.296Z,5.43
2023-05-24T19:05:25.346Z,5.07
2023-05-24T19:07:52.426Z,5.38
2023-05-24T19:10:19.440Z,5.35
2023-05-24T19:12:46.526Z,6.10
2023-05-24T19:15:13.769Z,5.70
2023-05-24T19:17:40.793Z,5.90
2023-05-24T19:20:08.102Z,5.90
2023-05-24T19:22:36.527Z,5.97
2023-05-24T19:25:03.614Z,5.47
2023-05-24T19:27:30.538Z,5.50
2023-05-24T19:29:59.274Z,5.90
2023-05-24T19:32:26.294Z,6.03
2023-05-24T19:34:53.384Z,5.50
2023-05-24T19:37:21.038Z,5.20
2023-05-24T19:39:48.057Z,4.75
2023-05-24T19:42:15.129Z,8.45
2023-05-24T19:44:42.054Z,5.88
2023-05-24T19:47:08.930Z,6.35
2023-05-24T19:49:35.996Z,5.00
2023-05-24T19:52:03.073Z,4.72
2023-05-24T19:54:30.149Z,4.32
2023-05-24T19:56:57.891Z,3.92
2023-05-24T19:59:24.828Z,4.57
2023-05-24T20:01:51.877Z,3.95
2023-05-24T20:04:19.165Z,3.90
2023-05-24T20:06:46.147Z,3.55
2023-05-24T20:09:13.112Z,3.40
2023-05-24T20:11:41.334Z,3.60
2023-05-24T20:14:08.320Z,3.63
2023-05-24T20:16:35.261Z,3.22
2023-05-24T20:19:05.361Z,3.40
2023-05-24T20:21:32.795Z,3.30
2023-05-24T20:23:59.764Z,3.15
2023-05-24T20:26:26.729Z,3.13
2023-05-24T20:28:53.932Z,3.15
2023-05-24T20:31:20.907Z,3.10
2023-05-24T20:33:49.629Z,2.50
2023-05-24T20:36:16.911Z,2.83
2023-05-24T20:38:43.942Z,2.13
2023-05-24T20:41:10.960Z,2.40
2023-05-24T20:43:37.776Z,2.90
2023-05-24T20:46:04.916Z,2.30
2023-05-24T20:48:31.933Z,1.98
2023-05-24T20:50:58.898Z,2.20
2023-05-24T20:53:25.871Z,1.90
2023-05-24T20:55:53.374Z,2.20
2023-05-24T20:58:20.772Z,2.25
2023-05-24T21:00:47.850Z,2.33
2023-05-24T21:03:14.825Z,2.10
2023-05-24T21:05:42.020Z,2.30
2023-05-24T21:08:09.229Z,2.30
2023-05-24T21:10:38.064Z,2.90
2023-05-24T21:13:08.166Z,3.25
2023-05-24T21:15:35.592Z,2.33
2023-05-24T21:18:03.749Z,2.20
2023-05-24T21:20:30.758Z,2.30
2023-05-24T21:23:00.245Z,2.35
2023-05-24T21:25:27.417Z,2.00
2023-05-24T21:27:54.313Z,2.30
2023-05-24T21:30:21.628Z,2.30
2023-05-24T21:32:48.677Z,2.22
2023-05-24T21:35:15.722Z,2.10
2023-05-24T21:37:42.692Z,2.17
2023-05-24T21:40:10.442Z,2.08
2023-05-24T21:42:37.553Z,2.08
2023-05-24T21:45:04.748Z,2.40
2023-05-24T21:47:32.980Z,2.20
2023-05-24T21:49:59.723Z,2.30
2023-05-24T21:52:26.588Z,2.30
2023-05-24T21:54:53.363Z,2.58
2023-05-24T21:57:20.443Z,2.17
2023-05-24T21:59:47.411Z,2.58
2023-05-24T22:02:14.437Z,4.85
2023-05-24T22:04:41.364Z,4.10
2023-05-24T22:07:08.340Z,2.50
2023-05-24T22:09:35.141Z,2.50
2023-05-24T22:12:02.425Z,2.30
2023-05-24T22:14:29.580Z,2.63
2023-05-24T22:16:56.546Z,2.85
2023-05-24T22:19:38.829Z,2.60
2023-05-24T22:22:06.995Z,2.47
2023-05-24T22:24:33.794Z,2.40
2023-05-24T22:27:01.311Z,2.53
2023-05-24T22:29:28.419Z,2.40
2023-05-24T22:31:55.253Z,2.38
2023-05-24T22:34:31.680Z,2.60
2023-05-24T22:36:58.503Z,2.63
2023-05-24T22:39:25.855Z,2.90
2023-05-24T22:41:53.157Z,2.50
2023-05-24T22:44:20.463Z,2.90
2023-05-24T22:46:49.665Z,2.85
2023-05-24T22:49:19.523Z,2.97
2023-05-24T22:54:15.878Z,2.85
2023-05-24T22:56:43.391Z,2.60
2023-05-24T22:59:10.786Z,2.70
2023-05-24T23:01:37.653Z,2.80
2023-05-24T23:04:15.891Z,2.80
2023-05-24T23:06:49.558Z,2.80
2023-05-24T23:09:34.730Z,3.05
2023-05-24T23:12:07.620Z,2.60
2023-05-24T23:14:39.418Z,2.80
2023-05-24T23:17:13.542Z,2.70
2023-05-24T23:19:44.591Z,2.90
2023-05-24T23:22:12.876Z,2.90
2023-05-24T23:24:42.428Z,2.85
2023-05-24T23:27:09.780Z,2.55
2023-05-24T23:29:38.922Z,2.60
2023-05-24T23:32:07.559Z,3.10
2023-05-24T23:34:34.455Z,2.60
2023-05-24T23:37:01.950Z,2.97
2023-05-24T23:39:29.013Z,3.05
2023-05-24T23:41:55.850Z,2.75
2023-05-24T23:44:23.729Z,2.40
2023-05-24T23:46:52.100Z,3.10
2023-05-24T23:49:23.637Z,2.80
2023-05-24T23:51:50.586Z,2.95
2023-05-24T23:54:19.142Z,2.97
2023-05-24T23:56:46.521Z,3.03
2023-05-24T23:59:13.282Z,3.20
